Time;durP1;ratioP1;P1;durP2;ratioP2;P2;SDS_P1;SDS_P2;PMS_P1;PMS_P2;Temp;Humidity;BMP_temperature;BMP_pressure;BME280_temperature;BME280_humidity;BME280_pressure;Samples;Min_cycle;Max_cycle;Signal;HPM_P1;HPM_P2
2024/04/07 00:01:04;;;;;;;40.00;29.30;;;;;;;11.40;79.16;99054.70;226913;1272;22535;-79
2024/04/07 00:06:06;;;;;;;42.50;29.20;;;;;;;11.38;79.20;99052.48;226933;1270;22630;-79
2024/04/07 00:11:08;;;;;;;39.00;28.30;;;;;;;11.37;79.57;99055.97;226866;1270;22538;-79
2024/04/07 00:16:09;;;;;;;36.60;27.70;;;;;;;11.36;79.68;99049.20;226932;1267;22546;-79
2024/04/07 00:21:12;;;;;;;36.00;27.00;;;;;;;11.34;79.81;99053.69;226861;1266;22537;-79
2024/04/07 00:26:14;;;;;;;33.50;25.30;;;;;;;11.32;79.86;99063.99;226939;1273;22554;-79
2024/04/07 00:31:16;;;;;;;38.90;29.20;;;;;;;11.30;80.18;99072.23;226798;1272;22613;-79
2024/04/07 00:36:18;;;;;;;39.90;28.20;;;;;;;11.28;80.21;99077.96;226886;1269;22535;-81
2024/04/07 00:41:19;;;;;;;39.70;29.20;;;;;;;11.25;80.16;99085.59;226979;1272;23034;-79
2024/04/07 00:46:21;;;;;;;41.20;29.50;;;;;;;11.21;80.29;99086.79;226903;1270;24287;-79
2024/04/07 00:51:24;;;;;;;38.80;29.10;;;;;;;11.17;80.34;99088.11;226806;1269;25441;-79
2024/04/07 00:56:26;;;;;;;45.40;33.30;;;;;;;11.14;80.43;99086.65;226955;1273;24260;-79
2024/04/07 01:01:28;;;;;;;45.40;33.60;;;;;;;11.08;80.39;99075.23;226853;1263;22541;-78
2024/04/07 01:06:30;;;;;;;42.40;32.90;;;;;;;11.00;80.66;99078.38;226863;1270;22540;-79
2024/04/07 01:11:31;;;;;;;40.20;31.70;;;;;;;10.93;80.63;99081.83;226874;1266;22545;-79
2024/04/07 01:16:33;;;;;;;37.70;27.70;;;;;;;10.86;80.86;99083.06;226658;1270;263936;-79
2024/04/07 01:21:35;;;;;;;32.00;25.50;;;;;;;10.79;80.86;99083.55;226790;1268;22535;-79
2024/04/07 01:26:37;;;;;;;30.20;22.70;;;;;;;10.71;81.09;99077.45;226800;1266;22603;-78
2024/04/07 01:31:38;;;;;;;27.70;22.00;;;;;;;10.61;81.07;99068.08;226844;1270;22543;-78
2024/04/07 01:36:40;;;;;;;32.30;21.70;;;;;;;10.51;80.91;99063.09;226825;1267;22549;-78
2024/04/07 01:41:42;;;;;;;28.70;22.00;;;;;;;10.42;80.97;99066.80;226786;1259;24234;-79
2024/04/07 01:46:44;;;;;;;27.60;21.90;;;;;;;10.34;81.18;99072.95;226762;1270;22539;-79
2024/04/07 01:51:46;;;;;;;28.80;23.00;;;;;;;10.29;81.55;99071.20;226764;1270;22561;-78
2024/04/07 01:56:48;;;;;;;32.80;25.70;;;;;;;10.25;81.54;99071.45;226861;1269;22564;-79
2024/04/07 02:01:50;;;;;;;32.90;25.50;;;;;;;10.22;82.05;99075.86;226858;1260;22528;-78
2024/04/07 02:06:52;;;;;;;33.20;27.60;;;;;;;10.18;81.95;99073.66;226870;1273;22559;-79
2024/04/07 02:11:55;;;;;;;28.50;23.90;;;;;;;10.15;81.93;99069.06;226898;1272;22663;-79
2024/04/07 02:16:57;;;;;;;31.30;27.20;;;;;;;10.10;82.21;99061.06;226897;1271;22527;-80
2024/04/07 02:21:58;;;;;;;34.40;27.30;;;;;;;10.03;82.58;99057.76;226948;1269;22541;-79
2024/04/07 02:27:00;;;;;;;31.90;27.80;;;;;;;9.99;82.76;99057.27;226734;1265;22558;-79
2024/04/07 02:32:02;;;;;;;36.20;30.10;;;;;;;9.97;83.15;99066.60;226902;1271;22561;-79
2024/04/07 02:37:04;;;;;;;38.60;31.70;;;;;;;9.96;83.24;99066.34;226897;1269;22550;-79
2024/04/07 02:42:06;;;;;;;37.10;31.10;;;;;;;9.95;83.28;99071.73;226879;1269;22538;-78
2024/04/07 02:52:28;;;;;;;39.60;31.90;;;;;;;9.96;83.66;99079.57;226894;1267;22844;-78
2024/04/07 02:57:30;;;;;;;40.20;33.70;;;;;;;9.95;83.82;99083.18;226852;1272;22542;-79
2024/04/07 03:02:31;;;;;;;42.40;34.10;;;;;;;9.93;83.80;99085.52;226869;1272;22547;-79
2024/04/07 03:07:35;;;;;;;40.60;33.60;;;;;;;9.92;83.77;99084.67;226818;1273;22531;-78
2024/04/07 03:12:36;;;;;;;43.70;34.40;;;;;;;9.88;83.92;99083.30;226744;1270;22562;-78
2024/04/07 03:17:39;;;;;;;41.90;35.20;;;;;;;9.84;83.94;99079.17;226797;1270;22578;-78
2024/04/07 03:22:41;;;;;;;38.10;31.30;;;;;;;9.80;83.83;99073.54;226857;1272;22539;-78
2024/04/07 03:27:42;;;;;;;39.60;32.60;;;;;;;9.75;83.84;99073.41;226923;1269;22531;-78
2024/04/07 03:32:44;;;;;;;37.50;30.70;;;;;;;9.71;84.02;99066.80;226863;1273;22538;-78
2024/04/07 03:37:46;;;;;;;40.90;33.50;;;;;;;9.69;84.18;99066.31;226792;1270;25240;-78
2024/04/07 03:42:49;;;;;;;35.80;31.40;;;;;;;9.69;84.65;99065.22;226886;1269;22566;-78
2024/04/07 03:47:51;;;;;;;35.70;30.00;;;;;;;9.70;84.72;99063.11;226775;1270;22739;-78
2024/04/07 03:52:55;;;;;;;35.70;29.20;;;;;;;9.68;84.69;99062.56;226877;1272;22555;-79
2024/04/07 03:57:57;;;;;;;42.80;32.90;;;;;;;9.66;84.70;99065.94;226864;1273;22531;-78
2024/04/07 04:03:00;;;;;;;39.30;30.90;;;;;;;9.66;84.51;99069.27;226829;1273;25357;-78
2024/04/07 04:08:07;;;;;;;41.20;32.70;;;;;;;9.67;85.08;99067.98;226793;1269;22543;-79
2024/04/07 04:13:10;;;;;;;38.70;32.10;;;;;;;9.67;84.90;99066.59;226854;1272;22552;-78
2024/04/07 04:18:12;;;;;;;40.00;33.10;;;;;;;9.67;85.19;99066.55;226891;1273;23982;-79
2024/04/07 04:23:14;;;;;;;43.90;35.00;;;;;;;9.70;85.26;99068.76;226854;1269;22538;-79
2024/04/07 04:28:16;;;;;;;40.30;34.20;;;;;;;9.74;85.32;99067.38;226919;1273;22644;-79
2024/04/07 04:33:18;;;;;;;40.10;33.10;;;;;;;9.78;85.47;99068.23;226902;1273;22535;-79
2024/04/07 04:38:19;;;;;;;41.00;33.90;;;;;;;9.81;85.33;99068.40;226799;1269;22567;-78
2024/04/07 04:43:22;;;;;;;39.20;32.40;;;;;;;9.85;85.39;99069.23;226872;1272;22540;-78
2024/04/07 04:48:24;;;;;;;44.60;34.80;;;;;;;9.88;85.56;99072.42;226866;1272;24157;-78
2024/04/07 04:53:27;;;;;;;43.10;34.30;;;;;;;9.94;85.47;99080.00;226718;1273;22535;-78
2024/04/07 04:58:33;;;;;;;40.60;34.30;;;;;;;9.98;85.15;99082.86;226771;1266;22543;-78
2024/04/07 05:03:35;;;;;;;40.40;33.50;;;;;;;10.04;85.32;99092.03;226738;1269;22553;-78
2024/04/07 05:08:41;;;;;;;39.70;35.50;;;;;;;10.11;85.45;99091.67;226820;1272;22546;-78
2024/04/07 05:13:43;;;;;;;42.80;35.50;;;;;;;10.20;85.26;99091.40;226732;1267;22536;-78
2024/04/07 05:18:45;;;;;;;37.30;32.80;;;;;;;10.31;85.14;99093.83;226736;1270;22527;-78
2024/04/07 05:23:46;;;;;;;39.30;33.90;;;;;;;10.45;85.61;99095.17;226837;1272;22543;-78
2024/04/07 05:28:49;;;;;;;40.10;33.10;;;;;;;10.60;85.54;99089.16;226759;1266;22540;-77
2024/04/07 05:33:50;;;;;;;38.80;32.80;;;;;;;10.76;85.64;99085.16;226713;1272;22559;-78
2024/04/07 05:38:52;;;;;;;35.60;29.10;;;;;;;10.91;85.56;99081.95;226844;1272;24764;-78
2024/04/07 05:43:54;;;;;;;32.00;27.30;;;;;;;11.06;85.31;99086.52;226735;1271;22556;-80
2024/04/07 05:48:56;;;;;;;35.30;28.50;;;;;;;11.18;85.23;99082.79;226662;1272;24934;-79
2024/04/07 05:53:59;;;;;;;30.80;27.20;;;;;;;11.34;85.04;99088.34;226755;1269;22532;-79
2024/04/07 05:59:01;;;;;;;29.30;26.10;;;;;;;11.56;85.69;99093.67;226733;1271;22557;-79
2024/04/07 06:04:04;;;;;;;28.10;23.30;;;;;;;11.79;85.55;99085.23;226635;1269;25898;-77
2024/04/07 06:09:07;;;;;;;27.90;23.50;;;;;;;12.07;85.28;99089.91;226808;1273;22519;-78
2024/04/07 06:14:08;;;;;;;26.00;21.70;;;;;;;12.37;85.31;99091.64;226666;1266;22567;-79
2024/04/07 06:19:10;;;;;;;25.70;21.90;;;;;;;12.68;85.36;99096.97;226735;1273;24325;-78
2024/04/07 06:24:12;;;;;;;24.50;19.10;;;;;;;13.02;85.56;99102.94;226822;1273;24317;-79
2024/04/07 06:29:14;;;;;;;19.50;15.90;;;;;;;13.38;85.28;99100.27;226764;1270;22538;-78
2024/04/07 06:34:16;;;;;;;17.60;14.30;;;;;;;13.74;85.16;99104.58;226715;1273;22538;-79
2024/04/07 06:39:17;;;;;;;16.30;12.50;;;;;;;14.11;84.58;99102.56;226708;1273;23314;-78
2024/04/07 06:44:19;;;;;;;13.80;11.60;;;;;;;14.47;84.06;99101.91;226809;1273;22618;-79
2024/04/07 06:49:21;;;;;;;12.40;9.70;;;;;;;14.86;83.71;99102.37;226710;1274;25411;-79
2024/04/07 06:54:23;;;;;;;12.70;9.50;;;;;;;15.28;83.36;99102.31;226841;1272;22546;-78
2024/04/07 06:59:24;;;;;;;11.30;9.00;;;;;;;15.65;82.67;99099.26;226829;1274;22543;-78
2024/04/07 07:04:26;;;;;;;13.80;8.60;;;;;;;16.01;81.93;99103.54;226836;1271;22686;-79
2024/04/07 07:09:28;;;;;;;11.60;8.80;;;;;;;16.36;81.44;99101.02;226685;1270;22535;-79
2024/04/07 07:14:30;;;;;;;10.30;7.90;;;;;;;16.69;80.83;99105.52;226704;1273;22547;-79
2024/04/07 07:19:32;;;;;;;8.90;7.10;;;;;;;17.04;80.10;99101.78;226905;1272;22616;-79
2024/04/07 07:24:34;;;;;;;10.40;7.60;;;;;;;17.40;79.45;99111.02;226925;1274;22635;-79
2024/04/07 07:29:36;;;;;;;10.00;7.50;;;;;;;17.78;78.87;99116.34;226844;1272;22654;-80
2024/04/07 07:34:38;;;;;;;10.30;7.00;;;;;;;18.15;78.15;99111.90;226906;1273;22542;-79
2024/04/07 07:39:39;;;;;;;8.40;6.60;;;;;;;18.45;77.50;99106.08;226750;1271;22531;-80
2024/04/07 07:44:44;;;;;;;7.80;6.00;;;;;;;18.75;77.13;99100.05;226768;1272;23125;-80
2024/04/07 07:49:46;;;;;;;7.10;5.40;;;;;;;19.02;76.28;99106.68;226834;1271;22535;-80
2024/04/07 07:54:48;;;;;;;6.40;5.10;;;;;;;19.28;75.46;99104.66;226750;1273;24946;-80
2024/04/07 07:59:49;;;;;;;6.10;4.80;;;;;;;19.57;74.83;99105.91;226718;1271;22546;-79
2024/04/07 08:04:54;;;;;;;8.10;4.70;;;;;;;19.85;73.87;99110.59;226854;1272;22557;-80
2024/04/07 08:09:56;;;;;;;6.00;4.50;;;;;;;20.15;73.39;99104.96;226776;1271;22554;-79
2024/04/07 08:14:58;;;;;;;5.80;4.20;;;;;;;20.42;72.76;99111.67;226907;1273;22558;-80
2024/04/07 08:20:00;;;;;;;5.00;4.00;;;;;;;20.68;72.07;99108.59;226776;1272;22538;-80
2024/04/07 08:25:05;;;;;;;4.60;3.50;;;;;;;20.89;71.14;99102.95;226763;1272;22591;-80
2024/04/07 08:30:07;;;;;;;5.40;3.90;;;;;;;21.12;70.18;99102.27;226798;1272;22594;-80
2024/04/07 08:35:09;;;;;;;6.30;3.70;;;;;;;21.36;69.38;99094.42;226823;1272;22491;-79
2024/04/07 08:40:11;;;;;;;4.50;3.40;;;;;;;21.61;68.47;99097.36;226882;1273;25412;-79
2024/04/07 08:45:15;;;;;;;4.90;3.70;;;;;;;21.86;67.82;99100.05;226768;1273;22539;-79
2024/04/07 08:50:18;;;;;;;5.20;3.30;;;;;;;22.12;67.23;99102.06;226858;1272;22555;-79
2024/04/07 08:55:20;;;;;;;4.20;3.80;;;;;;;22.40;66.60;99096.17;226812;1269;22532;-80
2024/04/07 09:00:23;;;;;;;4.60;3.50;;;;;;;22.70;66.13;99093.10;226766;1272;25339;-80
2024/04/07 09:05:25;;;;;;;3.90;3.50;;;;;;;22.96;65.80;99085.16;226737;1251;24212;-79
2024/04/07 09:10:27;;;;;;;4.80;3.80;;;;;;;23.10;64.95;99080.92;226724;1274;22535;-79
2024/04/07 09:15:29;;;;;;;5.80;2.80;;;;;;;23.15;64.70;99076.64;226748;1271;25284;-80
2024/04/07 09:20:32;;;;;;;3.30;3.00;;;;;;;23.05;62.84;99067.58;226833;1272;25288;-80
2024/04/07 09:25:34;;;;;;;3.30;2.80;;;;;;;23.07;63.02;99067.54;226754;1274;22535;-79
2024/04/07 09:30:36;;;;;;;3.20;2.80;;;;;;;23.25;62.97;99065.09;226873;1272;22559;-81
2024/04/07 09:35:38;;;;;;;3.00;2.60;;;;;;;23.45;62.72;99069.80;226768;1272;24263;-79
2024/04/07 09:40:46;;;;;;;3.00;2.70;;;;;;;23.67;62.41;99067.64;226743;1272;24261;-80
2024/04/07 09:45:51;;;;;;;2.80;2.50;;;;;;;23.87;61.69;99067.19;226896;1273;22605;-79
2024/04/07 09:51:03;;;;;;;2.70;2.00;;;;;;;24.05;60.97;99066.14;226752;1274;22535;-80
2024/04/07 09:56:10;;;;;;;3.40;2.40;;;;;;;24.25;59.71;99063.80;226903;1272;22559;-80
2024/04/07 10:01:12;;;;;;;2.90;2.30;;;;;;;24.45;58.93;99060.11;226824;1270;22713;-80
2024/04/07 10:06:16;;;;;;;3.80;2.60;;;;;;;24.61;57.93;99059.84;226750;1273;22593;-79
2024/04/07 10:11:19;;;;;;;4.10;3.70;;;;;;;24.73;57.19;99050.95;226713;1274;22545;-80
2024/04/07 10:16:24;;;;;;;3.50;3.20;;;;;;;24.89;57.77;99039.40;226849;1272;22550;-80
2024/04/07 10:21:26;;;;;;;3.20;2.90;;;;;;;25.16;57.92;99043.88;226779;1273;25545;-80
2024/04/07 10:26:28;;;;;;;3.00;2.70;;;;;;;25.43;57.59;99043.81;226744;1267;22632;-80
2024/04/07 10:31:32;;;;;;;3.90;3.10;;;;;;;25.68;57.21;99045.00;226880;1274;22578;-80
2024/04/07 10:36:34;;;;;;;3.10;2.80;;;;;;;25.89;56.61;99048.98;226782;1272;22539;-80
2024/04/07 10:41:37;;;;;;;3.60;3.10;;;;;;;26.05;56.08;99046.70;226766;1272;22570;-80
2024/04/07 10:46:39;;;;;;;3.20;2.60;;;;;;;26.21;55.91;99044.03;226949;1273;22543;-80
2024/04/07 10:51:47;;;;;;;4.30;2.80;;;;;;;26.31;54.61;99039.73;226744;1274;22558;-80
2024/04/07 10:56:51;;;;;;;4.10;2.70;;;;;;;26.45;55.12;99032.95;226747;1267;24197;-80
2024/04/07 11:01:53;;;;;;;5.20;2.70;;;;;;;26.67;55.04;99023.84;226706;1270;26186;-80
2024/04/07 11:06:55;;;;;;;3.50;2.40;;;;;;;26.94;54.61;99020.14;226779;1271;22634;-80
2024/04/07 11:11:58;;;;;;;3.30;2.70;;;;;;;27.20;54.34;99012.67;226860;1272;22547;-80
2024/04/07 11:17:05;;;;;;;2.50;2.30;;;;;;;27.32;53.87;99002.91;226777;1272;22549;-80
2024/04/07 11:22:07;;;;;;;2.70;2.10;;;;;;;27.42;53.09;98998.06;226923;1274;22578;-80
2024/04/07 11:27:09;;;;;;;3.00;1.80;;;;;;;27.36;52.24;98995.80;226643;1273;22548;-81
2024/04/07 11:32:12;;;;;;;2.60;2.00;;;;;;;27.25;51.21;98993.83;226849;1266;23128;-81
2024/04/07 11:37:16;;;;;;;3.00;2.00;;;;;;;27.14;51.19;98987.92;226882;1273;22339;-80
2024/04/07 11:42:19;;;;;;;2.10;1.90;;;;;;;27.15;50.43;98987.73;226632;1273;22536;-80
2024/04/07 11:47:21;;;;;;;2.00;1.60;;;;;;;27.11;49.87;98989.95;226856;1272;23016;-81
2024/04/07 11:52:23;;;;;;;2.90;2.00;;;;;;;27.09;49.55;98989.65;226785;1272;22561;-80
2024/04/07 11:57:26;;;;;;;2.80;1.70;;;;;;;27.15;49.69;98987.36;226910;1273;22626;-80
2024/04/07 12:02:28;;;;;;;1.70;1.30;;;;;;;27.13;48.48;98981.14;226842;1273;24380;-80
2024/04/07 12:07:30;;;;;;;2.00;1.70;;;;;;;27.16;47.79;98975.23;226781;1272;22944;-80
2024/04/07 12:12:32;;;;;;;2.20;1.70;;;;;;;27.12;47.37;98976.27;226867;1272;22592;-80
2024/04/07 12:17:35;;;;;;;2.60;1.50;;;;;;;27.08;46.30;98975.45;226840;1273;22646;-81
2024/04/07 12:22:37;;;;;;;2.60;1.60;;;;;;;27.05;46.29;98965.02;226860;1273;22542;-80
2024/04/07 12:27:40;;;;;;;1.60;1.30;;;;;;;27.10;46.32;98958.83;226787;1250;22557;-80
2024/04/07 12:32:42;;;;;;;1.50;1.30;;;;;;;27.11;45.84;98961.75;226771;1270;22728;-80
2024/04/07 12:37:43;;;;;;;1.80;1.50;;;;;;;27.17;46.15;98958.62;226779;1274;22919;-80
2024/04/07 12:42:49;;;;;;;1.80;1.20;;;;;;;27.23;45.29;98961.14;226733;1274;23431;-81
2024/04/07 12:47:51;;;;;;;1.70;1.30;;;;;;;27.21;44.91;98955.24;226851;1274;25885;-80
2024/04/07 12:52:53;;;;;;;1.60;1.20;;;;;;;27.26;45.42;98947.75;226717;1273;22681;-80
2024/04/07 12:57:55;;;;;;;1.40;1.30;;;;;;;27.43;45.51;98947.02;226643;1273;22558;-80
2024/04/07 13:02:59;;;;;;;1.80;1.40;;;;;;;27.58;45.60;98941.65;226883;1272;22538;-79
2024/04/07 13:08:02;;;;;;;1.50;1.30;;;;;;;27.57;45.18;98931.13;226740;1274;22625;-79
2024/04/07 13:13:05;;;;;;;2.30;1.30;;;;;;;27.44;44.86;98937.67;226921;1273;22540;-80
2024/04/07 13:18:06;;;;;;;1.30;1.20;;;;;;;27.40;45.56;98938.76;226651;1273;162795;-79
2024/04/07 13:23:08;;;;;;;1.70;1.20;;;;;;;27.44;45.37;98937.78;226909;1274;22559;-80
2024/04/07 13:28:10;;;;;;;1.50;1.40;;;;;;;27.44;45.36;98925.89;226876;1273;22541;-79
2024/04/07 13:33:13;;;;;;;1.30;1.20;;;;;;;27.46;45.39;98927.05;226858;1274;22569;-80
2024/04/07 13:38:15;;;;;;;1.80;1.20;;;;;;;27.35;43.90;98924.38;226935;1273;22559;-80
2024/04/07 13:43:17;;;;;;;2.70;1.10;;;;;;;27.26;44.32;98926.20;226749;1264;22566;-79
2024/04/07 13:48:19;;;;;;;1.40;1.10;;;;;;;27.16;44.17;98925.41;226866;1274;22685;-80
2024/04/07 13:53:21;;;;;;;1.20;1.10;;;;;;;27.10;44.33;98928.77;226952;1273;22534;-81
2024/04/07 13:58:23;;;;;;;2.40;1.40;;;;;;;27.03;43.96;98926.46;226882;1270;22542;-80
2024/04/07 14:03:25;;;;;;;1.80;1.40;;;;;;;26.94;44.17;98921.20;226954;1274;22552;-80
2024/04/07 14:08:27;;;;;;;1.40;1.30;;;;;;;26.91;44.56;98921.00;226927;1270;22536;-80
2024/04/07 14:13:28;;;;;;;1.40;1.30;;;;;;;26.86;44.91;98917.77;226966;1273;22594;-80
2024/04/07 14:18:30;;;;;;;1.70;1.50;;;;;;;26.84;45.01;98916.28;226956;1273;24207;-80
2024/04/07 14:23:32;;;;;;;1.70;1.40;;;;;;;26.81;45.19;98913.98;226906;1270;22565;-80
2024/04/07 14:28:36;;;;;;;2.70;1.60;;;;;;;26.80;45.52;98918.87;226975;1272;22542;-80
2024/04/07 14:33:38;;;;;;;1.30;1.20;;;;;;;26.79;45.51;98917.20;226955;1271;22542;-80
2024/04/07 14:38:40;;;;;;;3.70;1.60;;;;;;;26.71;45.75;98913.30;226878;1273;22542;-80
2024/04/07 14:43:41;;;;;;;2.10;1.80;;;;;;;26.67;45.86;98911.88;226854;1270;22582;-80
2024/04/07 14:48:44;;;;;;;1.50;1.30;;;;;;;26.63;45.54;98910.40;226849;1274;22612;-80
2024/04/07 14:53:45;;;;;;;1.50;1.30;;;;;;;26.59;45.92;98912.34;226907;1273;24214;-81
2024/04/07 14:58:48;;;;;;;4.70;3.70;;;;;;;26.61;46.44;98912.87;226885;1273;23650;-80
2024/04/07 15:03:54;;;;;;;1.50;1.40;;;;;;;26.65;47.46;98915.11;227000;1273;24220;-80
2024/04/07 15:08:56;;;;;;;2.20;1.50;;;;;;;26.56;47.59;98907.63;226701;1270;22539;-80
2024/04/07 15:13:58;;;;;;;2.30;2.00;;;;;;;26.51;47.50;98906.55;226889;1267;22565;-80
2024/04/07 15:19:00;;;;;;;2.10;1.60;;;;;;;26.42;47.46;98900.46;226846;1273;22546;-80
2024/04/07 15:24:01;;;;;;;1.90;1.60;;;;;;;26.34;47.58;98899.25;226883;1273;22571;-79
2024/04/07 15:29:03;;;;;;;4.50;2.50;;;;;;;26.27;47.42;98902.17;226796;1270;22568;-80
2024/04/07 15:34:05;;;;;;;2.70;1.80;;;;;;;26.20;47.78;98896.55;226788;1267;22926;-80
2024/04/07 15:39:07;;;;;;;3.10;1.40;;;;;;;26.12;47.28;98899.50;226922;1273;22543;-80
2024/04/07 15:44:09;;;;;;;2.20;1.30;;;;;;;26.04;47.12;98893.90;226750;1273;22551;-80
2024/04/07 15:49:11;;;;;;;1.80;1.60;;;;;;;25.96;47.39;98891.86;226836;1273;22572;-80
2024/04/07 15:54:13;;;;;;;3.80;2.00;;;;;;;25.91;47.94;98886.39;226822;1270;22532;-80
2024/04/07 15:59:15;;;;;;;3.00;2.60;;;;;;;25.82;47.79;98883.28;226876;1273;22685;-79
2024/04/07 16:04:22;;;;;;;2.00;1.40;;;;;;;25.70;47.73;98878.02;226879;1273;22534;-80
2024/04/07 16:09:24;;;;;;;2.80;1.60;;;;;;;25.56;47.35;98876.77;226893;1270;22528;-80
2024/04/07 16:14:26;;;;;;;3.20;1.80;;;;;;;25.42;47.73;98879.52;226937;1269;25260;-80
2024/04/07 16:19:31;;;;;;;3.60;1.80;;;;;;;25.26;48.02;98876.89;226754;1270;22564;-80
2024/04/07 16:24:33;;;;;;;1.60;1.50;;;;;;;25.08;48.63;98879.88;226884;1273;22585;-80
2024/04/07 16:29:35;;;;;;;3.00;1.90;;;;;;;24.89;49.25;98880.77;226735;1272;22542;-81
2024/04/07 16:34:38;;;;;;;2.30;2.10;;;;;;;24.72;49.90;98879.82;226841;1269;26341;-79
2024/04/07 16:39:39;;;;;;;4.00;2.10;;;;;;;24.54;50.11;98873.96;226740;1273;22589;-79
2024/04/07 16:44:42;;;;;;;2.60;2.10;;;;;;;24.35;50.30;98867.38;226728;1274;22663;-80
2024/04/07 16:49:45;;;;;;;3.10;2.50;;;;;;;24.15;50.71;98873.08;226808;1267;22578;-79
2024/04/07 16:54:46;;;;;;;2.40;2.20;;;;;;;23.94;51.25;98872.38;226924;1273;25517;-79
2024/04/07 16:59:48;;;;;;;3.70;2.50;;;;;;;23.72;51.79;98874.33;226750;1266;22542;-80
2024/04/07 17:04:50;;;;;;;3.30;2.60;;;;;;;23.49;52.35;98875.52;226787;1269;22590;-80
2024/04/07 17:09:52;;;;;;;3.00;2.60;;;;;;;23.24;52.72;98881.95;226941;1267;22531;-80
2024/04/07 17:14:54;;;;;;;3.60;2.60;;;;;;;23.02;53.29;98878.85;227003;1273;22671;-80
2024/04/07 17:19:56;;;;;;;2.70;2.50;;;;;;;22.76;53.70;98875.95;226885;1270;25352;-80
2024/04/07 17:24:57;;;;;;;2.40;2.10;;;;;;;22.50;54.03;98874.55;226867;1266;26056;-80
2024/04/07 17:29:59;;;;;;;2.70;2.20;;;;;;;22.27;54.52;98879.45;226784;1270;22534;-80
2024/04/07 17:35:01;;;;;;;3.30;2.00;;;;;;;22.04;54.92;98884.69;226932;1273;22542;-80
2024/04/07 17:40:04;;;;;;;2.40;2.20;;;;;;;21.86;55.25;98888.48;226889;1256;22541;-80
2024/04/07 17:45:06;;;;;;;2.70;2.20;;;;;;;21.76;55.34;98897.30;226927;1269;25463;-80
2024/04/07 17:50:08;;;;;;;2.80;2.30;;;;;;;21.66;55.72;98899.73;226987;1267;25236;-79
2024/04/07 17:55:10;;;;;;;2.30;2.10;;;;;;;21.47;56.10;98907.10;226896;1269;22558;-79
2024/04/07 18:00:12;;;;;;;5.60;2.60;;;;;;;21.21;56.59;98912.44;226931;1273;24250;-80
2024/04/07 18:05:15;;;;;;;2.80;2.50;;;;;;;20.92;56.97;98917.86;226873;1269;22990;-80
2024/04/07 18:10:17;;;;;;;3.70;2.60;;;;;;;20.72;57.64;98914.89;226956;1266;22549;-80
2024/04/07 18:15:19;;;;;;;3.90;2.10;;;;;;;20.62;58.15;98927.39;226957;1273;22539;-80
2024/04/07 18:20:20;;;;;;;3.80;2.40;;;;;;;20.55;58.58;98932.29;226897;1270;22599;-80
2024/04/07 18:25:26;;;;;;;3.00;2.20;;;;;;;20.50;58.86;98937.52;226922;1270;22588;-80
2024/04/07 18:30:28;;;;;;;3.40;3.00;;;;;;;20.41;59.23;98934.67;226996;1272;22546;-80
2024/04/07 18:35:30;;;;;;;4.50;3.10;;;;;;;20.33;59.40;98933.09;226852;1272;23274;-80
2024/04/07 18:40:32;;;;;;;3.40;3.00;;;;;;;20.23;59.80;98935.23;226991;1272;22562;-80
2024/04/07 18:45:35;;;;;;;3.40;2.90;;;;;;;20.14;60.12;98937.63;227004;1271;23055;-79
2024/04/07 18:50:37;;;;;;;3.70;3.10;;;;;;;19.98;60.21;98940.79;226790;1273;22535;-79
2024/04/07 18:55:39;;;;;;;4.20;3.20;;;;;;;19.86;60.51;98934.04;226926;1273;22586;-79
2024/04/07 19:00:48;;;;;;;3.40;2.60;;;;;;;19.75;60.83;98937.23;226931;1267;22558;-80
2024/04/07 19:05:51;;;;;;;3.20;2.60;;;;;;;19.67;61.27;98934.75;226990;1272;24257;-80
2024/04/07 19:10:58;;;;;;;3.60;2.30;;;;;;;19.59;61.49;98932.05;227050;1272;22542;-78
2024/04/07 19:16:02;;;;;;;3.60;2.30;;;;;;;19.49;61.64;98931.27;226943;1270;24235;-79
2024/04/07 19:21:06;;;;;;;3.80;2.10;;;;;;;19.35;61.80;98930.84;226889;1273;22544;-79
2024/04/07 19:26:08;;;;;;;3.10;2.30;;;;;;;19.27;62.32;98933.30;226933;1271;24256;-79
2024/04/07 19:31:12;;;;;;;3.10;2.50;;;;;;;19.24;62.56;98932.20;226837;1272;22535;-78
2024/04/07 19:36:16;;;;;;;5.10;2.60;;;;;;;19.16;62.53;98930.81;226934;1273;22531;-79
2024/04/07 19:41:20;;;;;;;3.30;2.70;;;;;;;19.07;62.74;98929.04;226971;1273;22553;-80
2024/04/07 19:46:23;;;;;;;3.50;2.50;;;;;;;19.04;63.16;98933.38;226902;1273;22640;-79
2024/04/07 19:51:25;;;;;;;3.70;3.00;;;;;;;19.04;63.22;98935.52;226982;1269;24264;-79
2024/04/07 19:56:27;;;;;;;3.90;3.20;;;;;;;18.99;63.39;98940.63;226927;1272;22561;-79
2024/04/07 20:01:29;;;;;;;3.70;3.00;;;;;;;18.91;63.69;98941.43;226820;1273;22553;-80
2024/04/07 20:06:31;;;;;;;4.20;3.10;;;;;;;18.88;63.68;98935.41;226915;1269;22556;-79
2024/04/07 20:11:34;;;;;;;3.20;2.80;;;;;;;18.82;63.82;98934.08;226870;1268;22581;-79
2024/04/07 20:16:36;;;;;;;5.70;3.30;;;;;;;18.73;64.09;98940.84;226871;1270;22558;-79
2024/04/07 20:21:39;;;;;;;3.70;2.90;;;;;;;18.63;64.19;98943.54;226848;1270;22553;-79
2024/04/07 20:26:41;;;;;;;2.80;2.50;;;;;;;18.56;64.16;98942.73;226878;1272;22598;-78
2024/04/07 20:31:47;;;;;;;3.00;2.10;;;;;;;18.53;64.16;98943.58;226878;1269;22551;-79
2024/04/07 20:36:49;;;;;;;2.80;2.10;;;;;;;18.52;64.09;98940.67;226844;1266;22570;-79
2024/04/07 20:41:51;;;;;;;7.30;2.40;;;;;;;18.44;64.09;98942.60;226906;1273;22548;-79
2024/04/07 20:46:53;;;;;;;3.30;3.00;;;;;;;18.26;64.17;98943.45;226886;1273;22546;-79
2024/04/07 20:51:55;;;;;;;4.70;3.30;;;;;;;18.10;64.48;98939.77;226856;1273;22546;-80
2024/04/07 20:56:57;;;;;;;4.90;3.00;;;;;;;17.97;64.86;98937.27;226849;1272;24788;-79
2024/04/07 21:02:00;;;;;;;3.60;3.00;;;;;;;17.86;65.10;98934.61;226934;1272;22617;-80
2024/04/07 21:07:15;;;;;;;4.80;3.00;;;;;;;17.79;65.47;98929.38;226843;1260;22524;-80
2024/04/07 21:12:17;;;;;;;5.40;3.40;;;;;;;17.75;65.52;98931.35;226983;1269;22550;-78
2024/04/07 21:17:19;;;;;;;5.30;3.40;;;;;;;17.65;65.63;98937.65;226838;1266;22544;-78
2024/04/07 21:22:21;;;;;;;7.70;3.30;;;;;;;17.53;65.72;98945.05;226961;1272;22600;-78
2024/04/07 21:27:23;;;;;;;4.20;3.50;;;;;;;17.42;66.04;98948.27;226905;1272;22590;-79
2024/04/07 21:32:25;;;;;;;4.40;3.20;;;;;;;17.30;66.03;98947.29;226818;1270;24736;-79
2024/04/07 21:37:27;;;;;;;4.90;3.40;;;;;;;17.20;66.27;98943.07;226888;1269;22552;-78
2024/04/07 21:42:29;;;;;;;5.90;3.60;;;;;;;17.12;66.62;98944.20;226923;1271;22558;-79
2024/04/07 21:47:30;;;;;;;5.50;3.20;;;;;;;17.05;66.68;98941.80;226910;1272;22538;-79
2024/04/07 21:52:33;;;;;;;5.00;3.40;;;;;;;16.96;67.09;98950.89;226793;1269;22526;-79
2024/04/07 21:57:35;;;;;;;4.80;3.10;;;;;;;16.87;67.14;98947.45;226858;1270;22555;-78
2024/04/07 22:02:37;;;;;;;5.10;3.50;;;;;;;16.80;67.57;98944.48;226868;1269;22570;-79
2024/04/07 22:07:38;;;;;;;6.10;3.70;;;;;;;16.78;67.67;98940.73;226880;1272;26742;-80
2024/04/07 22:12:40;;;;;;;5.70;4.00;;;;;;;16.75;67.76;98940.55;226842;1273;22464;-80
2024/04/07 22:17:42;;;;;;;4.70;3.30;;;;;;;16.73;68.02;98933.59;226942;1272;22534;-79
2024/04/07 22:22:44;;;;;;;5.40;3.00;;;;;;;16.73;67.76;98934.08;226884;1269;24373;-79
2024/04/07 22:27:46;;;;;;;4.40;3.20;;;;;;;16.77;68.17;98933.23;226965;1270;22544;-79
2024/04/07 22:32:54;;;;;;;3.60;3.10;;;;;;;16.78;68.03;98930.23;226845;1272;22565;-79
2024/04/07 22:37:55;;;;;;;5.30;3.70;;;;;;;16.71;68.00;98932.16;226917;1272;22726;-80
2024/04/07 22:42:57;;;;;;;5.80;4.20;;;;;;;16.60;68.23;98930.80;226792;1266;24317;-79
2024/04/07 22:47:59;;;;;;;5.00;3.60;;;;;;;16.49;68.45;98926.80;226970;1267;22575;-79
2024/04/07 22:53:01;;;;;;;5.70;3.70;;;;;;;16.39;68.56;98929.29;226928;1266;22544;-79
2024/04/07 22:58:03;;;;;;;4.10;3.30;;;;;;;16.31;68.85;98921.51;226875;1269;22549;-80
2024/04/07 23:03:08;;;;;;;4.20;3.40;;;;;;;16.23;68.96;98911.04;226897;1267;22523;-80
2024/04/07 23:08:10;;;;;;;5.60;3.60;;;;;;;16.16;69.07;98912.05;226773;1269;22531;-79
2024/04/07 23:13:13;;;;;;;4.50;3.30;;;;;;;16.07;69.24;98902.88;226806;1272;25285;-77
2024/04/07 23:18:15;;;;;;;6.70;3.40;;;;;;;15.97;69.56;98896.91;226931;1269;22590;-79
2024/04/07 23:23:16;;;;;;;7.50;3.80;;;;;;;15.91;69.82;98899.54;226838;1266;22526;-79